createdAt,value
2018-09-10T00:00:04.832Z,0
2018-09-10T00:01:04.822Z,0
2018-09-10T00:02:04.833Z,0
2018-09-10T00:03:04.556Z,0
2018-09-10T00:04:04.818Z,0
2018-09-10T00:05:05.047Z,0
2018-09-10T00:06:05.039Z,0
2018-09-10T00:07:05.032Z,0
2018-09-10T00:08:04.771Z,0
2018-09-10T00:09:04.515Z,0
2018-09-10T00:10:04.504Z,0
2018-09-10T00:11:05.006Z,0
2018-09-10T00:12:04.994Z,0
2018-09-10T00:13:04.993Z,0
2018-09-10T00:14:04.726Z,0
2018-09-10T00:15:04.469Z,0
2018-09-10T00:16:04.968Z,0
2018-09-10T00:17:04.201Z,0
2018-09-10T00:18:04.700Z,0
2018-09-10T00:19:04.499Z,0
2018-09-10T00:20:04.686Z,0
2018-09-10T00:21:04.944Z,0
2018-09-10T00:22:04.424Z,0
2018-09-10T00:23:04.923Z,0
2018-09-10T00:24:04.414Z,0
2018-09-10T00:25:04.899Z,0
2018-09-10T00:26:04.639Z,0
2018-09-10T00:27:04.631Z,0
2018-09-10T00:28:04.676Z,0
2018-09-10T00:29:04.624Z,0
2018-09-10T00:30:04.862Z,0
2018-09-10T00:31:04.605Z,0
2018-09-10T00:32:04.610Z,0
2018-09-10T00:33:04.844Z,0
2018-09-10T00:34:04.833Z,0
2018-09-10T00:35:04.839Z,0
2018-09-10T00:36:04.313Z,0
2018-09-10T00:37:04.305Z,0
2018-09-10T00:38:04.549Z,0
2018-09-10T00:39:04.551Z,0
2018-09-10T00:40:04.794Z,0
2018-09-10T00:41:04.796Z,0
2018-09-10T00:42:04.277Z,0
2018-09-10T00:43:04.512Z,0
2018-09-10T00:44:04.507Z,0
2018-09-10T00:45:04.499Z,0
2018-09-10T00:46:04.747Z,0
2018-09-10T00:47:04.236Z,0
2018-09-10T00:48:04.740Z,0
2018-09-10T00:49:04.225Z,0
2018-09-10T00:50:04.208Z,0
2018-09-10T00:51:04.468Z,0
2018-09-10T00:52:04.710Z,0
2018-09-10T00:53:04.442Z,0
2018-09-10T00:54:04.437Z,0
2018-09-10T00:55:04.674Z,0
2018-09-10T00:56:04.419Z,0
2018-09-10T00:57:04.674Z,0
2018-09-10T00:58:04.655Z,0
2018-09-10T00:59:04.659Z,0
2018-09-10T01:00:04.404Z,0
2018-09-10T01:01:04.639Z,0
2018-09-10T01:02:04.374Z,0
2018-09-10T01:03:04.623Z,0
2018-09-10T01:04:04.620Z,0
2018-09-10T01:05:04.599Z,0
2018-09-10T01:06:04.348Z,0
2018-09-10T01:07:04.331Z,0
2018-09-10T01:08:04.337Z,0
2018-09-10T01:09:04.321Z,0
2018-09-10T01:10:04.062Z,0
2018-09-10T01:11:04.054Z,0
2018-09-10T01:12:04.296Z,0
2018-09-10T01:13:04.543Z,0
2018-09-10T01:14:04.279Z,0
2018-09-10T01:15:04.525Z,0
2018-09-10T01:16:04.274Z,0
2018-09-10T01:17:04.258Z,0
2018-09-10T01:18:03.997Z,0
2018-09-10T01:19:04.255Z,0
2018-09-10T01:20:04.485Z,0
2018-09-10T01:21:04.224Z,0
2018-09-10T01:22:03.974Z,0
2018-09-10T01:23:04.219Z,0
2018-09-10T01:24:04.203Z,0
2018-09-10T01:25:04.465Z,0
2018-09-10T01:26:04.192Z,0
2018-09-10T01:27:04.181Z,0
2018-09-10T01:28:04.434Z,0
2018-09-10T01:29:04.166Z,0
2018-09-10T01:30:03.904Z,0
2018-09-10T01:31:04.148Z,0
2018-09-10T01:32:04.394Z,0
2018-09-10T01:33:04.130Z,0
2018-09-10T01:34:04.391Z,0
2018-09-10T01:35:04.126Z,0
2018-09-10T01:36:04.110Z,0
2018-09-10T01:37:04.359Z,0
2018-09-10T01:38:04.096Z,0
2018-09-10T01:39:03.835Z,0
2018-09-10T01:40:04.333Z,0
2018-09-10T01:41:04.072Z,0
2018-09-10T01:42:04.317Z,0
2018-09-10T01:43:04.056Z,0
2018-09-10T01:44:04.313Z,0
2018-09-10T01:45:04.044Z,0
2018-09-10T01:46:04.035Z,0
2018-09-10T01:47:03.775Z,0
2018-09-10T01:48:03.770Z,0
2018-09-10T01:49:04.271Z,0
2018-09-10T01:50:04.259Z,0
2018-09-10T01:51:03.750Z,0
2018-09-10T01:52:04.249Z,0
2018-09-10T01:53:03.978Z,0
2018-09-10T01:54:04.233Z,0
2018-09-10T01:55:03.717Z,0
2018-09-10T01:56:03.452Z,0
2018-09-10T01:57:04.202Z,0
2018-09-10T01:58:03.940Z,0
2018-09-10T01:59:03.936Z,0
2018-09-10T02:00:03.689Z,0
2018-09-10T02:01:03.918Z,0
2018-09-10T02:02:04.167Z,0
2018-09-10T02:03:03.900Z,0
2018-09-10T02:04:03.897Z,0
2018-09-10T02:05:03.898Z,0
2018-09-10T02:06:03.880Z,0
2018-09-10T02:07:04.133Z,0
2018-09-10T02:08:03.862Z,0
2018-09-10T02:09:04.106Z,0
2018-09-10T02:10:03.846Z,0
2018-09-10T02:11:03.888Z,0
2018-09-10T02:12:03.590Z,0
2018-09-10T02:13:03.832Z,0
2018-09-10T02:14:04.072Z,0
2018-09-10T02:15:03.556Z,0
2018-09-10T02:16:03.562Z,0
2018-09-10T02:17:03.752Z,0
2018-09-10T02:18:03.788Z,0
2018-09-10T02:19:03.782Z,0
2018-09-10T02:20:03.771Z,0
2018-09-10T02:21:04.020Z,0
2018-09-10T02:22:03.502Z,0
2018-09-10T02:23:03.997Z,0
2018-09-10T02:24:03.491Z,0
2018-09-10T02:25:03.999Z,0
2018-09-10T02:26:03.725Z,0
2018-09-10T02:27:03.982Z,0
2018-09-10T02:28:04.151Z,0
2018-09-10T02:29:03.968Z,0
2018-09-10T02:30:03.698Z,0
2018-09-10T02:31:03.435Z,0
2018-09-10T02:32:03.679Z,0
2018-09-10T02:33:03.671Z,0
2018-09-10T02:34:03.416Z,0
2018-09-10T02:35:03.658Z,0
2018-09-10T02:36:03.652Z,0
2018-09-10T02:37:03.639Z,0
2018-09-10T02:38:03.892Z,0
2018-09-10T02:39:03.645Z,0
2018-09-10T02:40:03.884Z,0
2018-09-10T02:41:03.617Z,0
2018-09-10T02:42:03.359Z,0
2018-09-10T02:43:03.348Z,0
2018-09-10T02:44:03.345Z,0
2018-09-10T02:45:03.850Z,0
2018-09-10T02:46:03.573Z,0
2018-09-10T02:47:03.574Z,0
2018-09-10T02:48:03.564Z,0
2018-09-10T02:49:03.300Z,0
2018-09-10T02:50:03.548Z,0
2018-09-10T02:51:03.546Z,0
2018-09-10T02:52:03.531Z,0
2018-09-10T02:53:03.529Z,0
2018-09-10T02:54:03.268Z,0
2018-09-10T02:55:03.927Z,0
2018-09-10T02:56:03.513Z,0
2018-09-10T02:57:03.506Z,0
2018-09-10T02:58:03.496Z,0
2018-09-10T02:59:03.481Z,0
2018-09-10T03:00:03.482Z,0
2018-09-10T03:01:03.489Z,0
2018-09-10T03:02:03.468Z,0
2018-09-10T03:03:03.540Z,0
2018-09-10T03:04:03.446Z,0
2018-09-10T03:05:03.447Z,0
2018-09-10T03:06:03.178Z,0
2018-09-10T03:07:03.679Z,0
2018-09-10T03:08:03.419Z,0
2018-09-10T03:09:03.671Z,0
2018-09-10T03:10:03.418Z,0
2018-09-10T03:11:03.140Z,0
2018-09-10T03:12:03.138Z,0
2018-09-10T03:13:03.384Z,0
2018-09-10T03:14:03.372Z,0
2018-09-10T03:15:03.367Z,0
2018-09-10T03:16:03.628Z,0
2018-09-10T03:17:03.661Z,0
2018-09-10T03:18:03.505Z,0
2018-09-10T03:19:03.585Z,0
2018-09-10T03:20:03.078Z,0
2018-09-10T03:21:03.322Z,0
2018-09-10T03:22:03.318Z,0
2018-09-10T03:23:03.598Z,0
2018-09-10T03:24:03.845Z,0
2018-09-10T03:25:03.551Z,0
2018-09-10T03:26:03.559Z,0
2018-09-10T03:27:03.547Z,0
2018-09-10T03:28:03.276Z,0
2018-09-10T03:29:03.527Z,0
2018-09-10T03:30:03.538Z,0
2018-09-10T03:31:03.529Z,0
2018-09-10T03:32:03.506Z,0
2018-09-10T03:33:03.489Z,0
2018-09-10T03:34:03.483Z,0
2018-09-10T03:35:03.502Z,0
2018-09-10T03:36:03.473Z,0
2018-09-10T03:37:03.217Z,0
2018-09-10T03:38:03.204Z,0
2018-09-10T03:39:03.453Z,0
2018-09-10T03:40:03.439Z,0
2018-09-10T03:41:03.444Z,0
2018-09-10T03:42:03.173Z,0
2018-09-10T03:43:03.436Z,0
2018-09-10T03:44:03.417Z,0
2018-09-10T03:45:03.411Z,0
2018-09-10T03:46:03.394Z,0
2018-09-10T03:47:03.415Z,0
2018-09-10T03:48:03.131Z,0
2018-09-10T03:49:03.385Z,0
2018-09-10T03:50:02.611Z,0
2018-09-10T03:51:03.363Z,0
2018-09-10T03:52:03.377Z,0
2018-09-10T03:53:03.346Z,0
2018-09-10T03:54:03.345Z,0
2018-09-10T03:55:03.344Z,0
2018-09-10T03:56:03.323Z,0
2018-09-10T03:57:03.337Z,0
2018-09-10T03:58:03.321Z,0
2018-09-10T03:59:02.803Z,0
2018-09-10T04:00:03.052Z,0
2018-09-10T04:01:03.293Z,0
2018-09-10T04:02:03.281Z,0
2018-09-10T04:03:03.276Z,0
2018-09-10T04:04:03.267Z,0
2018-09-10T04:05:03.261Z,0
2018-09-10T04:06:02.999Z,0
2018-09-10T04:07:03.246Z,0
2018-09-10T04:08:03.250Z,0
2018-09-10T04:09:02.975Z,0
2018-09-10T04:10:02.971Z,0
2018-09-10T04:11:03.214Z,0
2018-09-10T04:12:03.211Z,0
2018-09-10T04:13:03.203Z,0
2018-09-10T04:14:03.238Z,0
2018-09-10T04:15:03.193Z,0
2018-09-10T04:16:02.928Z,5
2018-09-10T04:17:02.977Z,5
2018-09-10T04:18:02.915Z,5
2018-09-10T04:19:03.155Z,5
2018-09-10T04:20:02.644Z,5
2018-09-10T04:21:02.882Z,10
2018-09-10T04:22:03.128Z,10
2018-09-10T04:23:02.872Z,10
2018-09-10T04:24:03.115Z,15
2018-09-10T04:25:02.863Z,15
2018-09-10T04:26:03.175Z,15
2018-09-10T04:27:02.852Z,15
2018-09-10T04:28:03.085Z,15
2018-09-10T04:29:02.829Z,15
2018-09-10T04:30:03.069Z,20
2018-09-10T04:31:02.811Z,20
2018-09-10T04:32:02.807Z,20
2018-09-10T04:33:03.078Z,20
2018-09-10T04:34:03.046Z,20
2018-09-10T04:35:02.787Z,25
2018-09-10T04:36:03.295Z,25
2018-09-10T04:37:02.515Z,25
2018-09-10T04:38:03.018Z,25
2018-09-10T04:39:03.009Z,30
2018-09-10T04:40:02.749Z,30
2018-09-10T04:41:03.030Z,30
2018-09-10T04:42:02.787Z,30
2018-09-10T04:43:02.733Z,30
2018-09-10T04:44:02.521Z,35
2018-09-10T04:45:02.205Z,35
2018-09-10T04:46:02.957Z,35
2018-09-10T04:47:02.945Z,40
2018-09-10T04:48:02.942Z,40
2018-09-10T04:49:02.685Z,45
2018-09-10T04:50:03.066Z,45
2018-09-10T04:51:02.926Z,50
2018-09-10T04:52:02.918Z,50
2018-09-10T04:53:02.658Z,55
2018-09-10T04:54:02.894Z,65
2018-09-10T04:55:02.711Z,70
2018-09-10T04:56:02.632Z,80
2018-09-10T04:57:02.882Z,85
2018-09-10T04:58:02.434Z,90
2018-09-10T04:59:02.865Z,90
2018-09-10T05:00:02.858Z,95
2018-09-10T05:01:02.854Z,95
2018-09-10T05:02:02.848Z,80
2018-09-10T05:03:02.835Z,85
2018-09-10T05:04:02.826Z,100
2018-09-10T05:05:02.833Z,110
2018-09-10T05:06:02.821Z,115
2018-09-10T05:07:02.817Z,125
2018-09-10T05:08:02.555Z,135
2018-09-10T05:09:02.546Z,130
2018-09-10T05:10:03.382Z,115
2018-09-10T05:11:02.530Z,110
2018-09-10T05:12:02.532Z,115
2018-09-10T05:13:02.321Z,120
2018-09-10T05:14:02.267Z,120
2018-09-10T05:15:02.775Z,125
2018-09-10T05:16:02.762Z,130
2018-09-10T05:17:02.756Z,135
2018-09-10T05:18:02.250Z,140
2018-09-10T05:19:02.253Z,145
2018-09-10T05:20:02.748Z,150
2018-09-10T05:21:02.481Z,155
2018-09-10T05:22:02.863Z,155
2018-09-10T05:23:02.726Z,155
2018-09-10T05:24:02.462Z,160
2018-09-10T05:25:02.461Z,175
2018-09-10T05:26:02.729Z,170
2018-09-10T05:27:02.709Z,175
2018-09-10T05:28:02.916Z,175
2018-09-10T05:29:02.197Z,165
2018-09-10T05:30:02.692Z,170
2018-09-10T05:31:02.436Z,165
2018-09-10T05:32:02.686Z,170
2018-09-10T05:33:02.678Z,175
2018-09-10T05:34:02.672Z,175
2018-09-10T05:35:02.670Z,175
2018-09-10T05:36:02.664Z,180
2018-09-10T05:37:02.404Z,185
2018-09-10T05:38:02.402Z,180
2018-09-10T05:39:02.644Z,185
2018-09-10T05:40:02.137Z,195
2018-09-10T05:41:02.391Z,205
2018-09-10T05:42:02.390Z,200
2018-09-10T05:43:02.634Z,200
2018-09-10T05:44:02.622Z,200
2018-09-10T05:45:02.626Z,205
2018-09-10T05:46:02.675Z,200
2018-09-10T05:47:02.356Z,200
2018-09-10T05:48:02.358Z,220
2018-09-10T05:49:02.600Z,245
2018-09-10T05:50:02.621Z,240
2018-09-10T05:51:02.602Z,240
2018-09-10T05:52:02.341Z,235
2018-09-10T05:53:02.077Z,215
2018-09-10T05:54:02.579Z,195
2018-09-10T05:55:02.580Z,190
2018-09-10T05:56:02.075Z,180
2018-09-10T05:57:02.582Z,180
2018-09-10T05:58:02.312Z,180
2018-09-10T05:59:02.572Z,185
2018-09-10T06:00:02.565Z,180
2018-09-10T06:01:02.305Z,180
2018-09-10T06:02:02.548Z,185
2018-09-10T06:03:02.552Z,185
2018-09-10T06:04:02.294Z,190
2018-09-10T06:05:02.540Z,185
2018-09-10T06:06:02.034Z,190
2018-09-10T06:07:02.530Z,190
2018-09-10T06:08:02.527Z,190
2018-09-10T06:09:02.542Z,190
2018-09-10T06:10:02.526Z,195
2018-09-10T06:11:02.272Z,210
2018-09-10T06:12:02.012Z,210
2018-09-10T06:13:02.264Z,230
2018-09-10T06:14:02.505Z,245
2018-09-10T06:15:02.503Z,265
2018-09-10T06:16:02.250Z,250
2018-09-10T06:17:02.495Z,240
2018-09-10T06:18:02.291Z,235
2018-09-10T06:19:02.496Z,230
2018-09-10T06:20:02.496Z,235
2018-09-10T06:21:02.492Z,225
2018-09-10T06:22:02.229Z,215
2018-09-10T06:23:02.236Z,210
2018-09-10T06:24:02.472Z,215
2018-09-10T06:25:02.245Z,240
2018-09-10T06:26:02.473Z,255
2018-09-10T06:27:02.204Z,320
2018-09-10T06:28:02.454Z,515
2018-09-10T06:29:02.452Z,520
2018-09-10T06:30:02.460Z,545
2018-09-10T06:31:02.443Z,545
2018-09-10T06:32:02.443Z,525
2018-09-10T06:33:02.437Z,425
2018-09-10T06:34:02.515Z,510
2018-09-10T06:35:02.442Z,495
2018-09-10T06:36:02.186Z,465
2018-09-10T06:37:02.575Z,435
2018-09-10T06:38:02.428Z,350
2018-09-10T06:39:02.174Z,325
2018-09-10T06:40:02.418Z,405
2018-09-10T06:41:02.167Z,465
2018-09-10T06:42:02.419Z,470
2018-09-10T06:43:02.408Z,630
2018-09-10T06:44:02.159Z,740
2018-09-10T06:45:02.411Z,780
2018-09-10T06:46:02.415Z,830
2018-09-10T06:47:02.153Z,840
2018-09-10T06:48:02.539Z,835
2018-09-10T06:49:02.405Z,825
2018-09-10T06:50:02.423Z,790
2018-09-10T06:52:02.407Z,765
2018-09-10T06:53:02.413Z,775
2018-09-10T06:54:02.413Z,775
2018-09-10T06:55:02.156Z,785
2018-09-10T06:56:02.422Z,785
2018-09-10T06:57:02.426Z,795
2018-09-10T06:58:02.425Z,805
2018-09-10T06:59:02.166Z,815
2018-09-10T07:00:02.168Z,820
2018-09-10T07:01:02.181Z,840
2018-09-10T07:02:02.434Z,855
2018-09-10T07:03:01.929Z,875
2018-09-10T07:04:02.191Z,890
2018-09-10T07:05:02.198Z,915
2018-09-10T07:06:01.959Z,855
2018-09-10T07:07:02.201Z,825
2018-09-10T07:08:02.210Z,925
2018-09-10T07:09:02.478Z,920
2018-09-10T07:10:02.233Z,900
2018-09-10T07:11:01.977Z,900
2018-09-10T07:12:02.490Z,900
2018-09-10T07:13:02.549Z,845
2018-09-10T07:14:02.250Z,845
2018-09-10T07:15:02.012Z,1005
2018-09-10T07:16:02.514Z,1235
2018-09-10T07:17:02.272Z,1320
2018-09-10T07:18:02.534Z,1325
2018-09-10T07:19:03.144Z,1330
2018-09-10T07:20:02.557Z,1335
2018-09-10T07:21:02.307Z,1350
2018-09-10T07:22:02.065Z,1345
2018-09-10T07:23:02.071Z,1325
2018-09-10T07:24:02.333Z,1325
2018-09-10T07:25:02.594Z,1355
2018-09-10T07:26:02.612Z,1365
2018-09-10T07:27:02.616Z,1390
2018-09-10T07:28:02.371Z,1390
2018-09-10T07:29:02.631Z,1400
2018-09-10T07:30:02.642Z,1400
2018-09-10T07:31:02.688Z,1425
2018-09-10T07:32:01.908Z,1450
2018-09-10T07:33:02.686Z,1455
2018-09-10T07:34:02.181Z,1470
2018-09-10T07:35:02.710Z,1475
2018-09-10T07:36:02.454Z,1485
2018-09-10T07:37:02.725Z,1455
2018-09-10T07:38:02.738Z,1430
2018-09-10T07:39:02.491Z,1435
2018-09-10T07:40:02.753Z,1425
2018-09-10T07:41:02.776Z,1230
2018-09-10T07:42:02.786Z,1020
2018-09-10T07:43:02.788Z,970
2018-09-10T07:44:03.670Z,920
2018-09-10T07:45:02.811Z,850
2018-09-10T07:46:02.575Z,915
2018-09-10T07:47:02.842Z,925
2018-09-10T07:48:02.849Z,935
2018-09-10T07:49:03.315Z,970
2018-09-10T07:50:02.619Z,1020
2018-09-10T07:51:02.884Z,1045
2018-09-10T07:52:02.694Z,1065
2018-09-10T07:53:02.654Z,940
2018-09-10T07:54:02.686Z,1015
2018-09-10T07:55:02.477Z,1070
2018-09-10T07:56:02.945Z,1095
2018-09-10T07:57:02.953Z,1115
2018-09-10T07:58:02.959Z,1125
2018-09-10T07:59:02.982Z,1130
2018-09-10T08:00:02.477Z,1135
2018-09-10T08:01:03.005Z,1140
2018-09-10T08:02:02.753Z,1165
2018-09-10T08:03:02.369Z,1175
2018-09-10T08:04:03.026Z,1180
2018-09-10T08:05:02.782Z,1180
2018-09-10T08:06:02.796Z,1180
2018-09-10T08:07:02.560Z,1180
2018-09-10T08:08:02.812Z,1195
2018-09-10T08:09:02.899Z,1190
2018-09-10T08:10:02.834Z,1190
2018-09-10T08:11:02.839Z,1005
2018-09-10T08:12:03.118Z,470
2018-09-10T08:13:02.614Z,200
2018-09-10T08:14:03.127Z,190
2018-09-10T08:15:03.146Z,190
2018-09-10T08:16:03.149Z,190
2018-09-10T08:17:02.902Z,190
2018-09-10T08:18:02.910Z,190
2018-09-10T08:19:02.916Z,190
2018-09-10T08:20:03.178Z,200
2018-09-10T08:21:03.179Z,195
2018-09-10T08:22:02.932Z,200
2018-09-10T08:23:02.943Z,200
2018-09-10T08:24:03.334Z,200
2018-09-10T08:25:03.278Z,200
2018-09-10T08:26:02.718Z,200
2018-09-10T08:27:03.217Z,205
2018-09-10T08:28:03.229Z,205
2018-09-10T08:29:03.223Z,205
2018-09-10T08:30:02.982Z,205
2018-09-10T08:31:02.989Z,205
2018-09-10T08:32:03.262Z,205
2018-09-10T08:33:02.993Z,205
2018-09-10T08:34:03.000Z,210
2018-09-10T08:35:03.005Z,210
2018-09-10T08:36:03.007Z,215
2018-09-10T08:37:02.754Z,220
2018-09-10T08:38:03.269Z,220
2018-09-10T08:39:03.016Z,220
2018-09-10T08:40:03.013Z,225
2018-09-10T08:41:03.023Z,225
2018-09-10T08:42:03.277Z,225
2018-09-10T08:43:03.285Z,230
2018-09-10T08:44:03.036Z,230
2018-09-10T08:45:03.285Z,235
2018-09-10T08:46:03.285Z,240
2018-09-10T08:47:03.304Z,240
2018-09-10T08:48:02.784Z,245
2018-09-10T08:49:03.037Z,250
2018-09-10T08:50:03.310Z,255
2018-09-10T08:51:03.296Z,250
2018-09-10T08:52:03.304Z,255
2018-09-10T08:53:03.305Z,255
2018-09-10T08:54:03.623Z,255
2018-09-10T08:55:05.744Z,255
2018-09-10T08:56:04.471Z,255
2018-09-10T08:57:03.316Z,255
2018-09-10T08:58:02.810Z,255
2018-09-10T08:59:03.058Z,255
2018-09-10T09:00:03.349Z,255
2018-09-10T09:01:03.066Z,255
2018-09-10T09:02:03.636Z,255
2018-09-10T09:03:03.070Z,255
2018-09-10T09:04:03.069Z,255
2018-09-10T09:05:03.317Z,255
2018-09-10T09:06:03.803Z,260
2018-09-10T09:07:03.368Z,265
2018-09-10T09:08:03.409Z,275
2018-09-10T09:09:02.821Z,290
2018-09-10T09:10:03.335Z,295
2018-09-10T09:11:03.324Z,305
2018-09-10T09:12:02.570Z,320
2018-09-10T09:13:02.831Z,345
2018-09-10T09:14:03.077Z,365
2018-09-10T09:15:03.330Z,405
2018-09-10T09:16:03.098Z,435
2018-09-10T09:17:02.829Z,470
2018-09-10T09:18:03.082Z,500
2018-09-10T09:19:02.842Z,530
2018-09-10T09:20:03.341Z,560
2018-09-10T09:21:03.344Z,585
2018-09-10T09:22:03.092Z,605
2018-09-10T09:23:03.489Z,620
2018-09-10T09:24:02.852Z,625
2018-09-10T09:25:03.354Z,630
2018-09-10T09:26:03.352Z,630
2018-09-10T09:27:03.363Z,635
2018-09-10T09:28:03.365Z,630
2018-09-10T09:29:03.375Z,625
2018-09-10T09:30:03.639Z,625
2018-09-10T09:31:03.371Z,625
2018-09-10T09:32:03.119Z,625
2018-09-10T09:33:03.133Z,620
2018-09-10T09:34:02.877Z,610
2018-09-10T09:35:03.135Z,600
2018-09-10T09:36:03.389Z,590
2018-09-10T09:37:03.397Z,580
2018-09-10T09:38:03.408Z,570
2018-09-10T09:39:03.152Z,565
2018-09-10T09:40:03.156Z,555
2018-09-10T09:41:02.905Z,545
2018-09-10T09:42:02.912Z,540
2018-09-10T09:43:03.423Z,540
2018-09-10T09:44:03.431Z,535
2018-09-10T09:45:02.946Z,535
2018-09-10T09:46:03.202Z,535
2018-09-10T09:47:03.184Z,535
2018-09-10T09:48:02.942Z,540
2018-09-10T09:49:03.203Z,540
2018-09-10T09:50:03.204Z,540
2018-09-10T09:51:03.374Z,550
2018-09-10T09:52:03.475Z,545
2018-09-10T09:53:03.470Z,545
2018-09-10T09:54:03.229Z,550
2018-09-10T09:55:03.232Z,555
2018-09-10T09:56:03.245Z,550
2018-09-10T09:57:03.245Z,550
2018-09-10T09:58:03.505Z,550
2018-09-10T09:59:03.509Z,555
2018-09-10T10:00:03.526Z,545
2018-09-10T10:01:03.538Z,540
2018-09-10T10:02:03.521Z,535
2018-09-10T10:03:03.530Z,530
2018-09-10T10:04:03.666Z,535
2018-09-10T10:05:03.034Z,530
2018-09-10T10:06:03.048Z,535
2018-09-10T10:07:03.619Z,550
2018-09-10T10:08:03.557Z,550
2018-09-10T10:09:03.565Z,555
2018-09-10T10:10:03.575Z,560
2018-09-10T10:11:03.607Z,560
2018-09-10T10:12:03.210Z,560
2018-09-10T10:13:03.076Z,560
2018-09-10T10:14:03.336Z,560
2018-09-10T10:15:03.090Z,555
2018-09-10T10:16:03.601Z,555
2018-09-10T10:17:03.611Z,555
2018-09-10T10:18:03.620Z,555
2018-09-10T10:19:03.622Z,550
2018-09-10T10:20:03.121Z,550
2018-09-10T10:21:03.381Z,545
2018-09-10T10:22:03.601Z,540
2018-09-10T10:23:03.390Z,535
2018-09-10T10:24:03.393Z,530
2018-09-10T10:25:03.402Z,525
2018-09-10T10:26:03.411Z,520
2018-09-10T10:27:03.412Z,515
2018-09-10T10:28:03.749Z,515
2018-09-10T10:29:03.670Z,515
2018-09-10T10:30:03.683Z,510
2018-09-10T10:31:03.692Z,505
2018-09-10T10:32:03.437Z,505
2018-09-10T10:33:03.694Z,500
2018-09-10T10:34:03.457Z,495
2018-09-10T10:35:03.454Z,495
2018-09-10T10:36:03.209Z,490
2018-09-10T10:37:03.718Z,485
2018-09-10T10:38:03.719Z,485
2018-09-10T10:39:03.490Z,480
2018-09-10T10:40:03.745Z,480
2018-09-10T10:41:03.487Z,480
2018-09-10T10:42:03.498Z,485
2018-09-10T10:43:03.499Z,400
2018-09-10T10:44:03.505Z,405
2018-09-10T10:45:03.265Z,405
2018-09-10T10:46:03.774Z,405
2018-09-10T10:47:03.774Z,395
2018-09-10T10:48:03.277Z,390
2018-09-10T10:49:03.281Z,385
2018-09-10T10:50:03.796Z,385
2018-09-10T10:51:03.807Z,390
2018-09-10T10:52:03.805Z,395
2018-09-10T10:53:03.551Z,395
2018-09-10T10:54:03.621Z,395
2018-09-10T10:55:03.820Z,390
2018-09-10T10:56:03.828Z,385
2018-09-10T10:57:03.595Z,380
2018-09-10T10:58:03.834Z,370
2018-09-10T10:59:03.848Z,370
2018-09-10T11:00:03.595Z,365
2018-09-10T11:01:03.856Z,365
2018-09-10T11:02:03.601Z,370
2018-09-10T11:03:03.351Z,375
2018-09-10T11:04:03.671Z,370
2018-09-10T11:05:03.867Z,375
2018-09-10T11:06:03.870Z,385
2018-09-10T11:07:03.626Z,395
2018-09-10T11:08:03.631Z,405
2018-09-10T11:09:03.889Z,415
2018-09-10T11:10:03.889Z,420
2018-09-10T11:11:03.640Z,425
2018-09-10T11:12:03.649Z,425
2018-09-10T11:13:03.914Z,425
2018-09-10T11:14:03.921Z,425
2018-09-10T11:15:03.409Z,425
2018-09-10T11:16:03.920Z,425
2018-09-10T11:17:03.679Z,425
2018-09-10T11:18:03.422Z,425
2018-09-10T11:19:03.675Z,415
2018-09-10T11:20:03.435Z,405
2018-09-10T11:21:03.956Z,400
2018-09-10T11:22:03.692Z,390
2018-09-10T11:23:03.444Z,380
2018-09-10T11:24:03.706Z,370
2018-09-10T11:25:03.954Z,365
2018-09-10T11:26:03.713Z,365
2018-09-10T11:27:03.976Z,365
2018-09-10T11:28:03.466Z,450
2018-09-10T11:29:03.991Z,455
2018-09-10T11:30:03.977Z,460
2018-09-10T11:31:03.735Z,465
2018-09-10T11:32:03.994Z,475
2018-09-10T11:33:03.744Z,475
2018-09-10T11:34:03.500Z,480
2018-09-10T11:35:03.508Z,480
2018-09-10T11:36:03.511Z,475
2018-09-10T11:37:03.768Z,475
2018-09-10T11:38:03.764Z,480
2018-09-10T11:39:03.766Z,475
2018-09-10T11:40:04.058Z,475
2018-09-10T11:41:03.779Z,475
2018-09-10T11:42:03.790Z,470
2018-09-10T11:43:04.048Z,470
2018-09-10T11:44:03.538Z,470
2018-09-10T11:45:03.798Z,465
2018-09-10T11:46:03.546Z,460
2018-09-10T11:47:03.804Z,445
2018-09-10T11:48:03.806Z,425
2018-09-10T11:49:03.816Z,410
2018-09-10T11:50:04.090Z,395
2018-09-10T11:51:03.825Z,375
2018-09-10T11:52:04.085Z,370
2018-09-10T11:53:03.581Z,355
2018-09-10T11:54:04.089Z,340
2018-09-10T11:55:04.097Z,330
2018-09-10T11:56:03.596Z,325
2018-09-10T11:57:03.598Z,320
2018-09-10T11:58:03.865Z,320
2018-09-10T11:59:03.610Z,320
2018-09-10T12:00:03.872Z,315
2018-09-10T12:01:03.620Z,325
2018-09-10T12:02:03.938Z,325
2018-09-10T12:03:03.879Z,330
2018-09-10T12:04:03.879Z,330
2018-09-10T12:05:04.150Z,335
2018-09-10T12:06:04.157Z,335
2018-09-10T12:07:03.653Z,350
2018-09-10T12:08:03.906Z,370
2018-09-10T12:09:04.153Z,390
2018-09-10T12:10:03.663Z,400
2018-09-10T12:11:03.920Z,405
2018-09-10T12:12:03.663Z,410
2018-09-10T12:13:03.674Z,405
2018-09-10T12:14:03.929Z,400
2018-09-10T12:15:03.926Z,395
2018-09-10T12:16:03.682Z,390
2018-09-10T12:17:04.380Z,385
2018-09-10T12:18:03.945Z,375
2018-09-10T12:19:03.942Z,365
2018-09-10T12:20:03.951Z,370
2018-09-10T12:21:03.958Z,375
2018-09-10T12:22:03.456Z,380
2018-09-10T12:23:03.712Z,385
2018-09-10T12:24:03.968Z,385
2018-09-10T12:25:03.721Z,400
2018-09-10T12:26:03.976Z,410
2018-09-10T12:27:03.984Z,420
2018-09-10T12:28:03.733Z,425
2018-09-10T12:29:03.995Z,430
2018-09-10T12:30:03.997Z,440
2018-09-10T12:31:03.744Z,440
2018-09-10T12:32:04.010Z,445
2018-09-10T12:33:03.755Z,450
2018-09-10T12:34:04.016Z,455
2018-09-10T12:35:03.819Z,460
2018-09-10T12:36:04.022Z,455
2018-09-10T12:37:04.024Z,465
2018-09-10T12:38:04.280Z,460
2018-09-10T12:39:04.292Z,450
2018-09-10T12:40:04.308Z,440
2018-09-10T12:41:04.054Z,430
2018-09-10T12:42:04.300Z,420
2018-09-10T12:43:04.054Z,405
2018-09-10T12:44:04.305Z,390
2018-09-10T12:45:04.061Z,385
2018-09-10T12:46:04.076Z,375
2018-09-10T12:47:03.564Z,375
2018-09-10T12:48:03.821Z,380
2018-09-10T12:49:04.085Z,385
2018-09-10T12:50:04.162Z,400
2018-09-10T12:51:04.154Z,420
2018-09-10T12:52:04.090Z,445
2018-09-10T12:53:04.351Z,460
2018-09-10T12:54:04.101Z,475
2018-09-10T12:55:04.379Z,495
2018-09-10T12:56:04.111Z,495
2018-09-10T12:57:04.375Z,495
2018-09-10T12:58:04.120Z,500
2018-09-10T12:59:04.448Z,505
2018-09-10T13:00:04.136Z,520
2018-09-10T13:01:03.887Z,525
2018-09-10T13:02:04.400Z,535
2018-09-10T13:03:04.152Z,530
2018-09-10T13:04:04.440Z,525
2018-09-10T13:05:04.160Z,520
2018-09-10T13:06:04.168Z,515
2018-09-10T13:07:04.177Z,505
2018-09-10T13:08:04.167Z,495
2018-09-10T13:09:04.177Z,475
2018-09-10T13:10:04.185Z,465
2018-09-10T13:11:03.933Z,450
2018-09-10T13:12:04.191Z,430
2018-09-10T13:13:04.448Z,420
2018-09-10T13:14:03.948Z,420
2018-09-10T13:15:04.208Z,420
2018-09-10T13:16:04.003Z,430
2018-09-10T13:17:04.222Z,440
2018-09-10T13:18:03.718Z,445
2018-09-10T13:19:04.482Z,450
2018-09-10T13:20:04.236Z,450
2018-09-10T13:21:04.251Z,450
2018-09-10T13:22:04.249Z,450
2018-09-10T13:23:04.500Z,455
2018-09-10T13:24:04.019Z,465
2018-09-10T13:25:04.006Z,465
2018-09-10T13:26:04.517Z,470
2018-09-10T13:27:04.269Z,475
2018-09-10T13:28:04.029Z,470
2018-09-10T13:29:04.537Z,475
2018-09-10T13:30:04.038Z,470
2018-09-10T13:31:04.298Z,460
2018-09-10T13:32:04.299Z,460
2018-09-10T13:33:04.303Z,460
2018-09-10T13:34:04.567Z,455
2018-09-10T13:35:04.313Z,450
2018-09-10T13:36:03.811Z,445
2018-09-10T13:37:04.328Z,440
2018-09-10T13:38:04.579Z,435
2018-09-10T13:39:04.592Z,425
2018-09-10T13:40:03.840Z,415
2018-09-10T13:41:04.343Z,410
2018-09-10T13:42:04.348Z,395
2018-09-10T13:43:04.742Z,380
2018-09-10T13:44:04.610Z,355
2018-09-10T13:45:04.362Z,335
2018-09-10T13:46:04.624Z,300
2018-09-10T13:47:04.123Z,270
2018-09-10T13:48:04.644Z,235
2018-09-10T13:49:04.391Z,205
2018-09-10T13:50:04.434Z,185
2018-09-10T13:51:04.663Z,175
2018-09-10T13:52:04.397Z,175
2018-09-10T13:53:04.457Z,185
2018-09-10T13:54:04.540Z,185
2018-09-10T13:55:04.666Z,190
2018-09-10T13:56:04.675Z,185
2018-09-10T13:57:04.427Z,175
2018-09-10T13:58:04.439Z,165
2018-09-10T13:59:04.681Z,160
2018-09-10T14:00:04.695Z,155
2018-09-10T14:01:04.693Z,155
2018-09-10T14:02:04.202Z,155
2018-09-10T14:03:04.206Z,150
2018-09-10T14:04:04.704Z,140